Time;durP1;ratioP1;P1;durP2;ratioP2;P2;SDS_P1;SDS_P2;PMS_P1;PMS_P2;Temp;Humidity;BMP_temperature;BMP_pressure;BME280_temperature;BME280_humidity;BME280_pressure;Samples;Min_cycle;Max_cycle;Signal;HPM_P1;HPM_P2
2022/02/26 00:01:42;;;;;;;17.50;6.70;;;;;;;;;;5052455;28;20025;-72
2022/02/26 00:04:09;;;;;;;21.10;4.75;;;;;;;;;;5033527;28;20036;-71
2022/02/26 00:06:35;;;;;;;20.23;4.78;;;;;;;;;;5052056;28;20025;-71
2022/02/26 00:09:01;;;;;;;25.85;8.73;;;;;;;;;;5051919;28;20095;-71
2022/02/26 00:11:27;;;;;;;22.13;7.43;;;;;;;;;;5052376;28;20069;-72
2022/02/26 00:13:53;;;;;;;31.85;10.93;;;;;;;;;;5051593;28;20020;-69
2022/02/26 00:16:19;;;;;;;25.08;7.05;;;;;;;;;;5052428;28;20025;-72
2022/02/26 00:18:45;;;;;;;19.70;5.45;;;;;;;;;;5052045;28;20025;-71
2022/02/26 00:21:11;;;;;;;23.80;8.55;;;;;;;;;;5051897;28;20051;-72
2022/02/26 00:23:40;;;;;;;21.42;6.60;;;;;;;;;;5051065;28;20385;-71
2022/02/26 00:26:06;;;;;;;21.92;7.28;;;;;;;;;;5051974;28;20028;-71
2022/02/26 00:28:33;;;;;;;21.98;7.75;;;;;;;;;;5050160;28;20029;-71
2022/02/26 00:30:59;;;;;;;25.33;8.30;;;;;;;;;;5051746;28;20487;-71
2022/02/26 00:33:25;;;;;;;24.40;8.52;;;;;;;;;;5050993;28;20104;-71
2022/02/26 00:35:51;;;;;;;24.60;9.20;;;;;;;;;;5033993;28;20111;-70
2022/02/26 00:38:16;;;;;;;28.05;7.18;;;;;;;;;;5051924;28;20040;-72
2022/02/26 00:40:42;;;;;;;34.53;10.27;;;;;;;;;;5051804;28;20021;-72
2022/02/26 00:43:08;;;;;;;30.67;11.13;;;;;;;;;;5050894;28;20402;-71
2022/02/26 00:45:34;;;;;;;26.67;7.90;;;;;;;;;;5052125;28;20060;-71
2022/02/26 00:48:00;;;;;;;24.02;7.63;;;;;;;;;;5051652;28;20487;-70
2022/02/26 00:50:27;;;;;;;34.95;10.32;;;;;;;;;;5051720;28;20031;-71
2022/02/26 00:52:55;;;;;;;26.83;8.95;;;;;;;;;;5033052;28;20394;-71
2022/02/26 00:55:22;;;;;;;24.75;7.65;;;;;;;;;;5051535;28;20081;-71
2022/02/26 00:57:48;;;;;;;20.60;7.45;;;;;;;;;;5051446;28;20108;-71
2022/02/26 01:00:14;;;;;;;20.20;6.25;;;;;;;;;;5051488;28;20021;-72
2022/02/26 01:02:40;;;;;;;28.98;7.93;;;;;;;;;;5051113;28;20480;-71
2022/02/26 01:05:06;;;;;;;35.88;8.45;;;;;;;;;;5033341;28;20068;-72
2022/02/26 01:07:32;;;;;;;33.65;8.52;;;;;;;;;;5033833;28;20491;-71
2022/02/26 01:09:58;;;;;;;33.53;9.15;;;;;;;;;;5051794;28;20032;-71
2022/02/26 01:12:25;;;;;;;31.73;6.78;;;;;;;;;;5051565;28;20049;-72
2022/02/26 01:14:50;;;;;;;27.77;5.47;;;;;;;;;;5032835;28;20111;-72
2022/02/26 01:17:17;;;;;;;18.55;6.13;;;;;;;;;;5051281;28;20068;-72
2022/02/26 01:19:43;;;;;;;22.58;7.55;;;;;;;;;;5051633;28;20100;-72
2022/02/26 01:22:09;;;;;;;26.38;8.55;;;;;;;;;;5051642;28;20029;-70
2022/02/26 01:24:36;;;;;;;23.60;6.07;;;;;;;;;;5050671;28;20036;-71
2022/02/26 01:27:02;;;;;;;32.22;6.20;;;;;;;;;;5053181;28;20025;-71
2022/02/26 01:29:29;;;;;;;27.25;6.50;;;;;;;;;;5055398;28;20021;-74
2022/02/26 01:31:55;;;;;;;23.20;6.78;;;;;;;;;;5055492;28;20495;-72
2022/02/26 01:34:21;;;;;;;23.10;7.97;;;;;;;;;;5054721;28;20131;-71
2022/02/26 01:36:47;;;;;;;27.23;5.68;;;;;;;;;;5055364;28;20094;-71
2022/02/26 01:39:13;;;;;;;26.45;6.65;;;;;;;;;;5037278;28;20502;-74
2022/02/26 01:41:40;;;;;;;28.48;7.85;;;;;;;;;;5055189;28;20025;-71
2022/02/26 01:44:06;;;;;;;27.95;7.78;;;;;;;;;;5054372;28;20095;-71
2022/02/26 01:46:32;;;;;;;26.30;5.22;;;;;;;;;;5054990;28;20033;-72
2022/02/26 01:48:58;;;;;;;21.63;6.57;;;;;;;;;;5055173;28;20029;-72
2022/02/26 01:51:26;;;;;;;32.28;6.05;;;;;;;;;;5055358;28;20021;-72
2022/02/26 01:53:52;;;;;;;22.45;5.72;;;;;;;;;;5054676;28;20383;-72
2022/02/26 01:56:18;;;;;;;31.85;6.43;;;;;;;;;;5055142;28;20024;-72
2022/02/26 01:58:44;;;;;;;31.33;7.40;;;;;;;;;;5037001;28;20075;-72
2022/02/26 02:01:11;;;;;;;30.30;7.47;;;;;;;;;;5054433;28;20510;-72
2022/02/26 02:03:37;;;;;;;29.23;7.03;;;;;;;;;;5054293;28;20047;-72
2022/02/26 02:06:03;;;;;;;15.35;5.35;;;;;;;;;;5054614;28;20071;-71
2022/02/26 02:08:30;;;;;;;26.75;6.68;;;;;;;;;;5036836;28;20119;-71
2022/02/26 02:10:56;;;;;;;26.95;6.20;;;;;;;;;;5054484;28;20398;-72
2022/02/26 02:13:23;;;;;;;23.08;6.85;;;;;;;;;;5054361;28;20025;-72
2022/02/26 02:15:49;;;;;;;40.90;7.47;;;;;;;;;;5054216;28;20028;-71
2022/02/26 02:18:16;;;;;;;24.40;6.25;;;;;;;;;;5054808;28;20033;-71
2022/02/26 02:20:43;;;;;;;33.20;6.57;;;;;;;;;;5054721;28;20024;-73
2022/02/26 02:23:09;;;;;;;20.17;6.80;;;;;;;;;;5053540;28;20380;-71
2022/02/26 02:25:36;;;;;;;21.63;5.90;;;;;;;;;;5054325;28;20411;-71
2022/02/26 02:28:03;;;;;;;27.05;5.50;;;;;;;;;;5052287;28;20036;-71
2022/02/26 02:30:30;;;;;;;21.70;5.30;;;;;;;;;;5036429;28;20372;-71
2022/02/26 02:32:57;;;;;;;27.20;5.38;;;;;;;;;;5053569;28;20398;-71
2022/02/26 02:35:30;;;;;;;25.00;7.65;;;;;;;;;;5054137;28;20106;-72
2022/02/26 02:37:57;;;;;;;28.60;5.97;;;;;;;;;;5053153;28;20418;-71
2022/02/26 02:40:24;;;;;;;30.50;7.35;;;;;;;;;;5053973;28;20031;-71
2022/02/26 02:42:51;;;;;;;14.75;5.50;;;;;;;;;;5053615;28;20099;-71
2022/02/26 02:45:18;;;;;;;25.45;6.05;;;;;;;;;;5053934;28;20040;-74
2022/02/26 02:47:44;;;;;;;22.40;5.50;;;;;;;;;;5035857;28;20051;-71
2022/02/26 02:50:10;;;;;;;24.95;6.43;;;;;;;;;;5053829;28;20029;-71
2022/02/26 02:52:36;;;;;;;29.10;5.82;;;;;;;;;;5053806;28;20083;-71
2022/02/26 02:55:01;;;;;;;31.67;6.57;;;;;;;;;;5034927;28;20021;-71
2022/02/26 02:57:27;;;;;;;28.25;7.47;;;;;;;;;;5053397;28;20025;-71
2022/02/26 02:59:53;;;;;;;27.73;5.55;;;;;;;;;;5053482;28;20060;-72
2022/02/26 03:02:19;;;;;;;18.98;5.88;;;;;;;;;;5035656;28;20029;-72
2022/02/26 03:04:45;;;;;;;29.67;6.85;;;;;;;;;;5052607;28;20071;-72
2022/02/26 03:07:11;;;;;;;27.92;7.63;;;;;;;;;;5053104;28;20542;-73
2022/02/26 03:09:37;;;;;;;23.10;6.57;;;;;;;;;;5035491;28;20021;-71
2022/02/26 03:12:03;;;;;;;17.55;5.28;;;;;;;;;;5053451;28;20025;-71
2022/02/26 03:14:29;;;;;;;20.45;6.15;;;;;;;;;;5052480;28;20025;-71
2022/02/26 03:16:55;;;;;;;24.65;5.93;;;;;;;;;;5035048;28;20372;-71
2022/02/26 03:19:22;;;;;;;23.80;6.20;;;;;;;;;;5053099;28;20025;-71
2022/02/26 03:21:48;;;;;;;25.27;5.95;;;;;;;;;;5053088;28;20139;-72
2022/02/26 03:24:15;;;;;;;28.02;7.85;;;;;;;;;;5052467;28;20036;-74
2022/02/26 03:26:42;;;;;;;26.00;6.38;;;;;;;;;;5035849;28;20546;-71
2022/02/26 03:29:09;;;;;;;28.80;6.50;;;;;;;;;;5052044;28;20033;-71
2022/02/26 03:31:35;;;;;;;35.17;8.25;;;;;;;;;;5053138;28;20025;-71
2022/02/26 03:34:01;;;;;;;21.52;4.38;;;;;;;;;;5052149;28;20036;-72
2022/02/26 03:36:32;;;;;;;27.95;7.45;;;;;;;;;;5053043;28;20029;-71
2022/02/26 03:38:58;;;;;;;21.33;5.90;;;;;;;;;;5058918;22;20049;-70
2022/02/26 03:41:24;;;;;;;21.67;5.30;;;;;;;;;;5015233;28;20107;-71
2022/02/26 03:43:50;;;;;;;21.02;4.45;;;;;;;;;;5032582;28;20022;-71
2022/02/26 03:46:16;;;;;;;24.67;5.80;;;;;;;;;;5033110;28;20060;-70
2022/02/26 03:48:42;;;;;;;27.45;5.35;;;;;;;;;;5033236;28;20515;-71
2022/02/26 03:51:10;;;;;;;26.10;6.70;;;;;;;;;;5032921;28;20502;-71
2022/02/26 03:53:36;;;;;;;25.20;6.95;;;;;;;;;;5036015;28;20021;-71
2022/02/26 03:56:02;;;;;;;25.27;6.70;;;;;;;;;;5038230;28;20083;-71
2022/02/26 03:58:28;;;;;;;22.92;4.20;;;;;;;;;;5035992;28;20026;-71
2022/02/26 04:00:54;;;;;;;19.88;3.78;;;;;;;;;;5014973;28;20395;-70
2022/02/26 04:03:20;;;;;;;27.30;5.10;;;;;;;;;;5032112;28;20033;-71
2022/02/26 04:05:46;;;;;;;16.55;5.30;;;;;;;;;;5032492;28;20032;-71
2022/02/26 04:08:12;;;;;;;23.58;4.82;;;;;;;;;;5032181;28;20028;-70
2022/02/26 04:10:38;;;;;;;26.55;5.88;;;;;;;;;;5032123;28;20033;-70
2022/02/26 04:13:04;;;;;;;26.83;6.05;;;;;;;;;;5031264;28;20498;-71
2022/02/26 04:15:30;;;;;;;25.45;5.72;;;;;;;;;;5032274;28;20029;-70
2022/02/26 04:17:56;;;;;;;22.58;5.78;;;;;;;;;;5032278;28;20079;-71
2022/02/26 04:20:22;;;;;;;18.27;4.30;;;;;;;;;;5032326;28;20422;-70
2022/02/26 04:22:48;;;;;;;20.90;6.30;;;;;;;;;;5031617;28;20479;-70
2022/02/26 04:25:14;;;;;;;20.00;3.35;;;;;;;;;;5031739;28;20026;-71
2022/02/26 04:27:40;;;;;;;22.17;5.05;;;;;;;;;;5030264;28;20479;-72
2022/02/26 04:30:08;;;;;;;29.80;6.93;;;;;;;;;;5031849;28;20450;-71
2022/02/26 04:32:35;;;;;;;20.98;5.93;;;;;;;;;;5032053;28;20028;-72
2022/02/26 04:35:01;;;;;;;33.17;6.47;;;;;;;;;;5030970;28;20040;-72
2022/02/26 04:37:27;;;;;;;20.70;4.70;;;;;;;;;;5031572;28;20034;-74
2022/02/26 04:39:53;;;;;;;19.50;3.85;;;;;;;;;;5013951;28;20112;-70
2022/02/26 04:42:19;;;;;;;23.45;5.03;;;;;;;;;;5031776;28;20031;-70
2022/02/26 04:44:45;;;;;;;19.92;5.57;;;;;;;;;;5031039;28;20034;-70
2022/02/26 04:47:14;;;;;;;20.80;3.85;;;;;;;;;;5031443;28;20502;-69
2022/02/26 04:49:41;;;;;;;17.38;4.30;;;;;;;;;;5031678;28;20102;-70
2022/02/26 04:52:07;;;;;;;20.20;3.65;;;;;;;;;;5031650;28;20029;-71
2022/02/26 04:54:33;;;;;;;19.85;4.20;;;;;;;;;;5030775;28;20487;-70
2022/02/26 04:56:59;;;;;;;19.83;4.25;;;;;;;;;;5031383;28;20155;-70
2022/02/26 04:59:25;;;;;;;19.73;3.75;;;;;;;;;;5031591;28;20029;-69
2022/02/26 05:01:51;;;;;;;21.75;4.65;;;;;;;;;;5030812;28;20080;-70
2022/02/26 05:04:17;;;;;;;18.70;5.00;;;;;;;;;;5031132;28;20030;-70
2022/02/26 05:06:43;;;;;;;22.08;3.45;;;;;;;;;;5031878;28;20021;-70
2022/02/26 05:09:09;;;;;;;23.80;5.13;;;;;;;;;;5031827;28;20044;-69
2022/02/26 05:11:35;;;;;;;28.20;5.40;;;;;;;;;;5031492;28;20018;-69
2022/02/26 05:14:01;;;;;;;13.95;2.92;;;;;;;;;;5030884;28;20114;-70
2022/02/26 05:16:27;;;;;;;20.30;4.50;;;;;;;;;;5031653;28;20021;-69
2022/02/26 05:18:53;;;;;;;14.95;2.78;;;;;;;;;;5031264;28;20055;-70
2022/02/26 05:21:19;;;;;;;18.65;4.05;;;;;;;;;;5031320;28;20045;-70
2022/02/26 05:23:45;;;;;;;19.35;4.22;;;;;;;;;;5030730;28;20022;-69
2022/02/26 05:26:13;;;;;;;19.65;3.90;;;;;;;;;;5031620;28;20468;-70
2022/02/26 05:28:39;;;;;;;16.58;3.92;;;;;;;;;;5031578;28;20380;-70
2022/02/26 05:31:05;;;;;;;18.77;4.22;;;;;;;;;;5031376;28;20029;-70
2022/02/26 05:33:31;;;;;;;16.00;3.72;;;;;;;;;;5030823;28;20033;-70
2022/02/26 05:35:58;;;;;;;17.05;4.40;;;;;;;;;;5031263;28;20105;-71
2022/02/26 05:38:23;;;;;;;17.05;4.40;;;;;;;;;;5031230;28;20116;-70
2022/02/26 05:40:49;;;;;;;18.35;4.63;;;;;;;;;;5013494;28;20083;-69
2022/02/26 05:43:15;;;;;;;12.77;4.10;;;;;;;;;;5012972;28;20036;-69
2022/02/26 05:45:41;;;;;;;16.80;4.35;;;;;;;;;;5031244;28;20586;-70
2022/02/26 05:48:07;;;;;;;18.52;5.07;;;;;;;;;;5013252;28;20099;-69
2022/02/26 05:50:33;;;;;;;21.77;4.90;;;;;;;;;;5031190;28;20104;-70
2022/02/26 05:52:59;;;;;;;23.27;5.20;;;;;;;;;;5030342;28;20140;-71
2022/02/26 05:55:25;;;;;;;21.38;5.70;;;;;;;;;;5031109;28;20076;-69
2022/02/26 05:57:51;;;;;;;17.77;4.80;;;;;;;;;;5031056;28;20072;-69
2022/02/26 06:00:18;;;;;;;16.70;5.68;;;;;;;;;;5030992;28;20040;-69
2022/02/26 06:02:44;;;;;;;16.25;5.50;;;;;;;;;;5030800;28;20030;-69
2022/02/26 06:05:10;;;;;;;16.67;5.55;;;;;;;;;;5030494;28;20033;-67
2022/02/26 06:07:36;;;;;;;21.42;5.65;;;;;;;;;;5031047;28;20026;-70
2022/02/26 06:10:02;;;;;;;24.80;6.93;;;;;;;;;;5027886;28;20357;-70
2022/02/26 06:12:29;;;;;;;25.73;5.97;;;;;;;;;;5029647;28;20025;-70
2022/02/26 06:14:55;;;;;;;21.45;6.70;;;;;;;;;;5031624;28;20082;-71
2022/02/26 06:17:21;;;;;;;28.83;5.75;;;;;;;;;;5032592;28;20502;-70
2022/02/26 06:19:47;;;;;;;15.38;5.90;;;;;;;;;;5031872;28;20013;-70
2022/02/26 06:22:13;;;;;;;25.40;6.15;;;;;;;;;;5031023;28;20518;-71
2022/02/26 06:24:39;;;;;;;21.42;5.88;;;;;;;;;;5014908;28;20037;-71
2022/02/26 06:27:05;;;;;;;22.73;5.82;;;;;;;;;;5033694;28;20033;-70
2022/02/26 06:29:31;;;;;;;24.60;6.35;;;;;;;;;;5034669;28;20022;-71
2022/02/26 06:31:57;;;;;;;30.50;5.93;;;;;;;;;;5034327;28;20029;-71
2022/02/26 06:34:24;;;;;;;19.35;6.80;;;;;;;;;;5031815;28;20044;-71
2022/02/26 06:36:50;;;;;;;18.38;5.35;;;;;;;;;;5034264;28;20020;-70
2022/02/26 06:39:16;;;;;;;21.42;4.97;;;;;;;;;;5033277;28;20163;-70
2022/02/26 06:41:42;;;;;;;28.60;6.75;;;;;;;;;;5033565;28;20029;-71
2022/02/26 06:44:08;;;;;;;29.35;6.43;;;;;;;;;;5032979;28;20017;-71
2022/02/26 06:46:38;;;;;;;17.90;5.80;;;;;;;;;;5015662;28;20024;-71
2022/02/26 06:49:04;;;;;;;38.10;7.75;;;;;;;;;;5027949;28;20038;-71
2022/02/26 06:51:30;;;;;;;19.95;5.60;;;;;;;;;;5033984;28;20025;-72
2022/02/26 06:53:57;;;;;;;21.05;5.97;;;;;;;;;;5033736;28;20026;-71
2022/02/26 06:56:23;;;;;;;30.85;6.97;;;;;;;;;;5032697;28;20021;-72
2022/02/26 06:58:48;;;;;;;26.20;6.28;;;;;;;;;;5034172;28;20025;-72
2022/02/26 07:01:14;;;;;;;27.70;5.47;;;;;;;;;;5033878;28;20037;-72
2022/02/26 07:03:40;;;;;;;18.13;5.28;;;;;;;;;;5033543;28;20029;-72
2022/02/26 07:06:06;;;;;;;22.67;6.85;;;;;;;;;;5034059;28;20483;-73
2022/02/26 07:08:32;;;;;;;24.35;6.07;;;;;;;;;;5033849;28;20526;-71
2022/02/26 07:10:59;;;;;;;27.05;7.20;;;;;;;;;;5034006;28;20037;-71
2022/02/26 07:13:25;;;;;;;32.08;7.20;;;;;;;;;;5033130;28;20018;-71
2022/02/26 07:15:51;;;;;;;22.60;7.45;;;;;;;;;;5033558;28;20044;-70
2022/02/26 07:18:17;;;;;;;49.38;9.57;;;;;;;;;;5033945;28;20495;-71
2022/02/26 07:20:44;;;;;;;25.00;6.10;;;;;;;;;;5033954;28;20029;-71
2022/02/26 07:23:10;;;;;;;22.17;6.13;;;;;;;;;;5033518;28;20471;-71
2022/02/26 07:25:36;;;;;;;22.67;6.80;;;;;;;;;;5033118;28;20472;-71
2022/02/26 07:28:02;;;;;;;29.77;6.40;;;;;;;;;;5033663;28;20104;-72
2022/02/26 07:30:28;;;;;;;21.55;6.47;;;;;;;;;;5033981;28;20474;-71
2022/02/26 07:32:54;;;;;;;25.90;5.65;;;;;;;;;;5033789;28;20025;-71
2022/02/26 07:35:20;;;;;;;23.08;5.60;;;;;;;;;;5033429;28;20549;-72
2022/02/26 07:37:46;;;;;;;26.80;6.57;;;;;;;;;;5033108;28;20056;-71
2022/02/26 07:40:12;;;;;;;25.70;5.82;;;;;;;;;;5033306;28;20033;-71
2022/02/26 07:42:38;;;;;;;26.33;5.53;;;;;;;;;;5033313;28;20135;-71
2022/02/26 07:45:05;;;;;;;22.50;6.45;;;;;;;;;;5033748;28;20029;-71
2022/02/26 07:47:31;;;;;;;29.92;6.65;;;;;;;;;;5032686;28;20036;-71
2022/02/26 07:49:57;;;;;;;28.25;5.88;;;;;;;;;;5033570;28;20084;-71
2022/02/26 07:52:23;;;;;;;23.10;7.07;;;;;;;;;;5032937;28;20040;-71
2022/02/26 07:54:51;;;;;;;32.83;7.18;;;;;;;;;;5033451;28;20033;-72
2022/02/26 07:57:17;;;;;;;29.10;7.53;;;;;;;;;;5032952;28;20021;-70
2022/02/26 07:59:43;;;;;;;24.65;6.60;;;;;;;;;;5031685;28;20021;-75
2022/02/26 08:02:09;;;;;;;26.10;5.47;;;;;;;;;;5022701;28;20022;-75
2022/02/26 08:04:37;;;;;;;22.77;6.25;;;;;;;;;;5033529;28;20092;-77
2022/02/26 08:07:03;;;;;;;29.27;6.45;;;;;;;;;;5018095;28;20047;-76
2022/02/26 08:09:30;;;;;;;30.05;6.25;;;;;;;;;;5033594;28;20082;-77
2022/02/26 08:11:56;;;;;;;28.23;6.45;;;;;;;;;;5016192;28;20049;-77
2022/02/26 08:14:22;;;;;;;29.40;6.43;;;;;;;;;;5015033;28;20022;-77
2022/02/26 08:16:48;;;;;;;22.85;7.00;;;;;;;;;;5033594;28;20471;-77
2022/02/26 08:19:14;;;;;;;23.95;6.10;;;;;;;;;;5034104;28;20109;-77
2022/02/26 08:21:49;;;;;;;39.88;6.15;;;;;;;;;;5016185;28;20025;-77
2022/02/26 08:24:17;;;;;;;31.25;7.18;;;;;;;;;;5032707;28;20045;-77
2022/02/26 08:26:44;;;;;;;19.75;5.55;;;;;;;;;;5032489;28;20025;-76
2022/02/26 08:29:10;;;;;;;25.17;5.57;;;;;;;;;;5013037;28;20041;-76
2022/02/26 08:31:36;;;;;;;28.95;6.30;;;;;;;;;;5012837;28;20091;-75
2022/02/26 08:34:05;;;;;;;28.30;5.43;;;;;;;;;;5019013;28;20017;-73
2022/02/26 08:36:32;;;;;;;20.15;5.38;;;;;;;;;;5032440;28;20025;-74
2022/02/26 08:38:58;;;;;;;26.08;6.85;;;;;;;;;;5031863;28;20124;-76
2022/02/26 08:41:24;;;;;;;23.73;5.95;;;;;;;;;;5032307;28;20071;-77
2022/02/26 08:43:52;;;;;;;15.18;4.55;;;;;;;;;;5031632;28;20033;-75
2022/02/26 08:46:18;;;;;;;33.33;5.40;;;;;;;;;;5032921;28;20017;-77
2022/02/26 08:48:44;;;;;;;23.75;6.50;;;;;;;;;;5013439;28;20075;-74
2022/02/26 08:51:10;;;;;;;25.23;6.60;;;;;;;;;;5032958;28;20068;-73
2022/02/26 08:53:36;;;;;;;24.40;5.53;;;;;;;;;;5031783;28;20053;-72
2022/02/26 08:56:03;;;;;;;22.40;5.30;;;;;;;;;;5031895;28;20136;-71
2022/02/26 08:58:29;;;;;;;22.52;5.82;;;;;;;;;;5032164;28;20072;-71
2022/02/26 09:00:55;;;;;;;26.85;5.15;;;;;;;;;;5032079;28;20483;-70
2022/02/26 09:03:21;;;;;;;28.10;5.97;;;;;;;;;;5011456;28;20022;-70
2022/02/26 09:05:48;;;;;;;23.17;6.07;;;;;;;;;;5012294;28;20105;-76
2022/02/26 09:08:18;;;;;;;23.13;4.47;;;;;;;;;;5017756;28;20032;-75
2022/02/26 09:10:44;;;;;;;21.92;4.93;;;;;;;;;;5013820;28;20022;-76
2022/02/26 09:13:10;;;;;;;16.48;5.13;;;;;;;;;;5013508;28;20479;-76
2022/02/26 09:15:36;;;;;;;19.70;4.78;;;;;;;;;;5031726;28;20534;-75
2022/02/26 09:18:02;;;;;;;17.80;4.85;;;;;;;;;;5032006;28;20078;-75
2022/02/26 09:20:28;;;;;;;21.00;4.68;;;;;;;;;;5031609;28;20030;-72
2022/02/26 09:22:54;;;;;;;32.53;7.05;;;;;;;;;;5031279;28;20029;-74
2022/02/26 09:25:20;;;;;;;20.55;4.75;;;;;;;;;;5031303;28;20025;-75
2022/02/26 09:27:47;;;;;;;28.70;4.85;;;;;;;;;;5013987;28;20029;-75
2022/02/26 09:30:14;;;;;;;22.70;4.63;;;;;;;;;;5031093;28;20391;-76
2022/02/26 09:32:40;;;;;;;28.95;4.65;;;;;;;;;;5031302;28;20028;-75
2022/02/26 09:35:06;;;;;;;22.17;4.90;;;;;;;;;;5030677;28;20423;-75
2022/02/26 09:40:03;;;;;;;15.93;4.50;;;;;;;;;;5049811;28;20044;-72
2022/02/26 09:42:30;;;;;;;19.70;4.25;;;;;;;;;;5032831;28;20025;-71
2022/02/26 09:44:56;;;;;;;19.42;5.00;;;;;;;;;;5050462;28;20529;-71
2022/02/26 09:47:22;;;;;;;16.02;3.63;;;;;;;;;;5051558;28;20033;-73
2022/02/26 09:49:49;;;;;;;22.00;5.38;;;;;;;;;;5055230;28;20041;-73
2022/02/26 09:52:16;;;;;;;22.45;4.60;;;;;;;;;;5054765;28;20017;-73
2022/02/26 09:54:46;;;;;;;23.98;5.13;;;;;;;;;;5054315;28;20025;-72
2022/02/26 09:57:14;;;;;;;18.50;4.25;;;;;;;;;;5055262;28;20025;-73
2022/02/26 09:59:40;;;;;;;19.63;5.00;;;;;;;;;;5054313;28;20036;-72
2022/02/26 10:02:09;;;;;;;20.67;4.90;;;;;;;;;;5054599;28;20112;-77
2022/02/26 10:04:36;;;;;;;19.23;4.00;;;;;;;;;;5052619;28;20051;-76
2022/02/26 10:07:13;;;;;;;20.92;4.50;;;;;;;;;;5052895;28;20021;-74
2022/02/26 10:09:40;;;;;;;26.38;4.13;;;;;;;;;;5052601;28;20033;-74
2022/02/26 10:12:19;;;;;;;28.77;4.38;;;;;;;;;;5051641;28;20021;-72
2022/02/26 10:14:47;;;;;;;16.80;4.38;;;;;;;;;;5051995;28;20064;-74
2022/02/26 10:17:23;;;;;;;16.98;4.15;;;;;;;;;;5053052;28;20032;-74
2022/02/26 10:19:49;;;;;;;21.27;4.30;;;;;;;;;;5054499;28;20479;-74
2022/02/26 10:22:15;;;;;;;12.32;3.33;;;;;;;;;;5054626;28;20025;-73
2022/02/26 10:24:41;;;;;;;22.63;5.28;;;;;;;;;;5052367;28;20616;-73
2022/02/26 10:27:11;;;;;;;17.75;3.78;;;;;;;;;;5054395;28;20033;-73
2022/02/26 10:29:40;;;;;;;18.25;3.80;;;;;;;;;;5054064;28;20034;-74
2022/02/26 10:32:11;;;;;;;20.73;3.85;;;;;;;;;;5054289;28;20048;-74
2022/02/26 10:34:38;;;;;;;20.38;3.80;;;;;;;;;;5053405;28;20122;-74
2022/02/26 10:37:04;;;;;;;21.90;4.50;;;;;;;;;;5054747;28;20025;-74
2022/02/26 10:39:35;;;;;;;18.67;4.03;;;;;;;;;;5054133;28;20029;-74
2022/02/26 10:42:02;;;;;;;20.08;3.60;;;;;;;;;;5054484;28;20056;-75
2022/02/26 10:44:28;;;;;;;15.30;4.05;;;;;;;;;;5053519;28;20103;-75
2022/02/26 10:47:04;;;;;;;16.02;3.65;;;;;;;;;;5054356;28;20451;-74
2022/02/26 10:49:31;;;;;;;18.33;4.05;;;;;;;;;;5054264;28;20021;-75
2022/02/26 10:52:07;;;;;;;14.60;3.65;;;;;;;;;;5054382;28;20045;-75
2022/02/26 10:54:33;;;;;;;19.52;3.20;;;;;;;;;;5053620;28;20025;-74
2022/02/26 10:57:04;;;;;;;9.68;2.67;;;;;;;;;;5054531;28;20029;-74
2022/02/26 10:59:32;;;;;;;18.13;3.97;;;;;;;;;;5052840;28;20552;-74
2022/02/26 11:01:59;;;;;;;17.77;3.55;;;;;;;;;;5054371;28;20529;-73
2022/02/26 11:04:25;;;;;;;16.67;3.78;;;;;;;;;;5053613;28;20033;-74
2022/02/26 11:06:52;;;;;;;13.48;3.47;;;;;;;;;;5054056;28;20035;-75
2022/02/26 11:09:19;;;;;;;18.58;3.40;;;;;;;;;;5053676;28;20025;-73
2022/02/26 11:11:46;;;;;;;16.58;3.88;;;;;;;;;;5053767;28;20021;-73
2022/02/26 11:14:15;;;;;;;20.05;4.43;;;;;;;;;;5053146;28;20134;-73
2022/02/26 11:16:42;;;;;;;15.68;3.92;;;;;;;;;;5053934;28;20029;-74
2022/02/26 11:19:10;;;;;;;16.73;3.63;;;;;;;;;;5053315;28;20033;-74
2022/02/26 11:21:36;;;;;;;15.18;3.50;;;;;;;;;;5053383;28;20025;-73
2022/02/26 11:24:03;;;;;;;16.80;3.60;;;;;;;;;;5052570;28;20190;-73
2022/02/26 11:26:29;;;;;;;14.57;3.97;;;;;;;;;;5053676;28;20051;-73
2022/02/26 11:28:56;;;;;;;15.73;3.38;;;;;;;;;;5053515;28;20033;-73
2022/02/26 11:31:24;;;;;;;18.35;4.43;;;;;;;;;;5052241;28;20040;-74
2022/02/26 11:33:52;;;;;;;14.07;3.20;;;;;;;;;;5052735;28;20058;-75
2022/02/26 11:36:18;;;;;;;21.23;4.13;;;;;;;;;;5053417;28;20031;-73
2022/02/26 11:38:45;;;;;;;19.02;4.97;;;;;;;;;;5053367;28;20108;-75
2022/02/26 11:41:19;;;;;;;17.38;4.03;;;;;;;;;;5053635;28;20051;-74
2022/02/26 11:43:47;;;;;;;17.63;3.92;;;;;;;;;;5052782;28;20037;-74
2022/02/26 11:46:25;;;;;;;21.05;4.57;;;;;;;;;;5054766;28;20028;-74
2022/02/26 11:48:52;;;;;;;14.95;4.20;;;;;;;;;;5053563;28;20049;-74
2022/02/26 11:51:19;;;;;;;17.40;3.78;;;;;;;;;;5054282;28;20036;-74
2022/02/26 11:53:46;;;;;;;15.02;3.65;;;;;;;;;;5051716;28;20028;-75
2022/02/26 11:56:13;;;;;;;17.33;4.20;;;;;;;;;;5052513;28;20077;-73
2022/02/26 11:58:39;;;;;;;13.32;4.25;;;;;;;;;;5053431;28;20243;-74
2022/02/26 12:01:06;;;;;;;19.90;3.08;;;;;;;;;;5053045;28;20104;-75
2022/02/26 12:03:41;;;;;;;14.35;3.72;;;;;;;;;;5052235;28;20029;-73
2022/02/26 12:06:12;;;;;;;17.45;3.90;;;;;;;;;;5053676;28;20547;-74
2022/02/26 12:08:45;;;;;;;10.70;3.07;;;;;;;;;;5051804;28;20390;-74
2022/02/26 12:11:12;;;;;;;11.40;2.70;;;;;;;;;;5052587;28;20260;-74
2022/02/26 12:13:39;;;;;;;11.27;3.25;;;;;;;;;;5052171;28;20071;-74
2022/02/26 12:16:08;;;;;;;14.93;4.25;;;;;;;;;;5052892;28;20031;-74
2022/02/26 12:18:40;;;;;;;16.70;3.35;;;;;;;;;;5053717;28;20036;-74
2022/02/26 12:21:08;;;;;;;12.88;4.25;;;;;;;;;;5053490;28;20475;-72
2022/02/26 12:23:34;;;;;;;13.88;3.55;;;;;;;;;;5051823;28;20112;-74
2022/02/26 12:26:05;;;;;;;14.20;3.42;;;;;;;;;;5053603;28;20122;-74
2022/02/26 12:28:31;;;;;;;12.43;3.00;;;;;;;;;;5051882;28;20032;-73
2022/02/26 12:31:00;;;;;;;12.63;3.53;;;;;;;;;;5053026;28;20291;-74
2022/02/26 12:33:26;;;;;;;20.95;3.45;;;;;;;;;;5052517;28;20383;-74
2022/02/26 12:36:06;;;;;;;18.67;3.70;;;;;;;;;;5053115;28;20120;-73
2022/02/26 12:38:32;;;;;;;12.45;2.45;;;;;;;;;;5052855;28;20033;-74
2022/02/26 12:40:58;;;;;;;13.35;2.75;;;;;;;;;;5053073;28;20116;-74
2022/02/26 12:43:29;;;;;;;17.65;3.42;;;;;;;;;;5054988;28;20021;-74
2022/02/26 12:45:55;;;;;;;12.23;2.92;;;;;;;;;;5056650;28;20104;-74
2022/02/26 12:48:23;;;;;;;11.82;3.80;;;;;;;;;;5055682;28;20033;-75
2022/02/26 12:50:49;;;;;;;15.18;4.50;;;;;;;;;;5052940;28;20017;-74
2022/02/26 12:53:15;;;;;;;16.95;2.92;;;;;;;;;;5052196;28;20024;-74
2022/02/26 12:55:41;;;;;;;14.40;3.42;;;;;;;;;;5052624;28;20459;-74
2022/02/26 12:58:09;;;;;;;15.10;3.72;;;;;;;;;;5052691;28;20139;-74
2022/02/26 13:00:35;;;;;;;14.48;2.90;;;;;;;;;;5053213;28;20390;-74
2022/02/26 13:03:03;;;;;;;13.93;3.35;;;;;;;;;;5051888;28;20025;-74
2022/02/26 13:05:37;;;;;;;17.17;3.85;;;;;;;;;;5052728;28;20033;-74
2022/02/26 13:08:09;;;;;;;16.30;2.75;;;;;;;;;;5045225;28;20021;-74
2022/02/26 13:10:36;;;;;;;10.45;2.75;;;;;;;;;;5034686;28;20026;-76
2022/02/26 13:13:06;;;;;;;15.15;3.90;;;;;;;;;;5052056;28;20067;-73
2022/02/26 13:15:32;;;;;;;14.85;3.30;;;;;;;;;;5052599;28;20398;-73
2022/02/26 13:17:58;;;;;;;13.75;4.00;;;;;;;;;;5051183;28;20501;-74
2022/02/26 13:20:25;;;;;;;13.63;3.42;;;;;;;;;;5052289;28;20029;-73
2022/02/26 13:22:52;;;;;;;14.95;3.90;;;;;;;;;;5053028;28;20109;-74
2022/02/26 13:25:19;;;;;;;13.82;2.83;;;;;;;;;;5056160;28;20429;-73
2022/02/26 13:27:46;;;;;;;14.88;3.25;;;;;;;;;;5056089;28;20025;-74
2022/02/26 13:30:13;;;;;;;14.15;3.05;;;;;;;;;;5055742;28;20029;-73
2022/02/26 13:32:43;;;;;;;13.57;3.05;;;;;;;;;;5056271;28;20446;-73
2022/02/26 13:35:10;;;;;;;12.75;3.63;;;;;;;;;;5054576;28;20021;-73
2022/02/26 13:37:36;;;;;;;14.65;4.10;;;;;;;;;;5055954;28;20024;-75
2022/02/26 13:40:03;;;;;;;16.83;3.92;;;;;;;;;;5055520;28;20032;-75
2022/02/26 13:42:30;;;;;;;21.42;4.65;;;;;;;;;;5055668;28;20406;-74
2022/02/26 13:45:05;;;;;;;16.25;3.58;;;;;;;;;;5055280;28;20071;-75
2022/02/26 13:47:32;;;;;;;19.35;4.07;;;;;;;;;;5054357;28;20082;-74
2022/02/26 13:49:59;;;;;;;13.85;3.03;;;;;;;;;;5056056;28;20044;-74
2022/02/26 13:52:26;;;;;;;13.90;3.03;;;;;;;;;;5054107;28;20025;-74
2022/02/26 13:54:53;;;;;;;14.32;3.05;;;;;;;;;;5054911;28;20021;-73
2022/02/26 13:57:20;;;;;;;11.45;2.90;;;;;;;;;;5055582;28;20055;-74
2022/02/26 13:59:47;;;;;;;13.88;2.95;;;;;;;;;;5055250;28;20025;-74
2022/02/26 14:02:40;;;;;;;16.30;3.55;;;;;;;;;;5054114;28;20124;-74
2022/02/26 14:05:07;;;;;;;16.65;3.80;;;;;;;;;;5049848;28;20087;-74
2022/02/26 14:07:33;;;;;;;20.98;4.03;;;;;;;;;;5055766;28;20372;-73
2022/02/26 14:09:59;;;;;;;14.05;3.00;;;;;;;;;;5056666;28;20027;-74
2022/02/26 14:12:27;;;;;;;17.98;3.63;;;;;;;;;;5057790;28;20025;-74
2022/02/26 14:14:56;;;;;;;13.23;3.17;;;;;;;;;;5058628;28;20021;-75
2022/02/26 14:17:22;;;;;;;13.15;3.65;;;;;;;;;;5060860;28;20466;-75
2022/02/26 14:19:48;;;;;;;19.05;3.60;;;;;;;;;;5056038;28;20230;-74
2022/02/26 14:22:15;;;;;;;10.90;3.13;;;;;;;;;;5056453;28;20135;-74
2022/02/26 14:24:42;;;;;;;15.57;4.38;;;;;;;;;;5055222;28;20556;-74
2022/02/26 14:27:12;;;;;;;13.40;3.55;;;;;;;;;;5055236;28;20383;-75
2022/02/26 14:29:38;;;;;;;15.10;4.03;;;;;;;;;;5057141;28;20025;-74
2022/02/26 14:32:06;;;;;;;11.50;3.13;;;;;;;;;;5058964;28;20025;-74